createdAt,value
2023-05-21T00:00:41.123Z,76.60
2023-05-21T00:03:42.301Z,76.70
2023-05-21T00:06:39.961Z,76.70
2023-05-21T00:09:38.571Z,76.76
2023-05-21T00:12:36.065Z,76.88
2023-05-21T00:15:33.986Z,76.92
2023-05-21T00:18:32.541Z,77.02
2023-05-21T00:21:32.009Z,77.07
2023-05-21T00:24:29.741Z,77.17
2023-05-21T00:27:27.183Z,77.25
2023-05-21T00:30:24.910Z,77.32
2023-05-21T00:33:22.913Z,77.39
2023-05-21T00:36:24.148Z,77.47
2023-05-21T00:39:22.017Z,77.50
2023-05-21T00:42:19.444Z,77.52
2023-05-21T00:45:17.254Z,77.59
2023-05-21T00:48:14.847Z,77.60
2023-05-21T00:51:12.634Z,77.68
2023-05-21T00:54:10.150Z,77.74
2023-05-21T00:57:07.802Z,77.81
2023-05-21T01:00:07.209Z,77.91
2023-05-21T01:03:05.163Z,77.95
2023-05-21T01:06:03.939Z,78.00
2023-05-21T01:09:02.124Z,78.06
2023-05-21T01:12:01.311Z,78.09
2023-05-21T01:14:59.401Z,78.11
2023-05-21T01:17:57.612Z,78.18
2023-05-21T01:20:55.563Z,78.24
2023-05-21T01:23:53.061Z,78.29
2023-05-21T01:26:50.793Z,78.35
2023-05-21T01:29:48.273Z,78.40
2023-05-21T01:32:46.211Z,78.40
2023-05-21T01:35:44.160Z,78.46
2023-05-21T01:38:41.822Z,78.51
2023-05-21T01:41:39.526Z,78.55
2023-05-21T01:44:37.002Z,78.60
2023-05-21T01:47:34.844Z,78.70
2023-05-21T01:50:32.685Z,78.77
2023-05-21T01:53:30.490Z,78.83
2023-05-21T01:56:28.702Z,78.89
2023-05-21T01:59:26.640Z,78.90
2023-05-21T02:02:24.602Z,78.93
2023-05-21T02:05:22.232Z,79.00
2023-05-21T02:08:19.987Z,79.04
2023-05-21T02:11:17.516Z,79.09
2023-05-21T02:14:15.519Z,79.13
2023-05-21T02:17:13.195Z,79.18
2023-05-21T02:20:12.388Z,79.20
2023-05-21T02:23:10.296Z,79.25
2023-05-21T02:26:07.829Z,79.28
2023-05-21T02:29:05.658Z,79.32
2023-05-21T02:32:03.511Z,79.41
2023-05-21T02:35:01.007Z,79.48
2023-05-21T02:37:59.700Z,79.53
2023-05-21T02:40:57.327Z,79.58
2023-05-21T02:43:55.208Z,79.60
2023-05-21T02:46:52.709Z,79.60
2023-05-21T02:49:50.515Z,79.60
2023-05-21T02:52:48.395Z,79.66
2023-05-21T02:55:45.889Z,79.70
2023-05-21T02:58:43.704Z,79.78
2023-05-21T03:01:41.930Z,79.83
2023-05-21T03:04:46.632Z,79.90
2023-05-21T03:07:44.316Z,79.91
2023-05-21T03:10:42.176Z,79.93
2023-05-21T03:13:40.092Z,80.00
2023-05-21T03:16:38.166Z,80.01
2023-05-21T03:19:36.272Z,80.10
2023-05-21T03:22:33.819Z,80.17
2023-05-21T03:25:31.661Z,80.27
2023-05-21T03:28:29.518Z,80.33
2023-05-21T03:31:27.038Z,80.40
2023-05-21T03:34:24.864Z,80.43
2023-05-21T03:37:22.425Z,80.48
2023-05-21T03:40:20.154Z,80.50
2023-05-21T03:43:17.642Z,80.53
2023-05-21T03:46:15.550Z,80.60
2023-05-21T03:49:13.348Z,80.60
2023-05-21T03:52:10.978Z,80.68
2023-05-21T03:55:08.666Z,80.76
2023-05-21T03:58:06.194Z,80.80
2023-05-21T04:01:05.127Z,80.81
2023-05-21T04:04:02.792Z,80.85
2023-05-21T04:07:01.492Z,80.92
2023-05-21T04:09:59.370Z,80.99
2023-05-21T04:12:56.885Z,81.02
2023-05-21T04:15:54.607Z,81.05
2023-05-21T04:18:52.467Z,81.17
2023-05-21T04:21:50.181Z,81.24
2023-05-21T04:24:48.897Z,81.28
2023-05-21T04:27:47.989Z,81.32
2023-05-21T04:30:46.069Z,81.40
2023-05-21T04:33:46.344Z,81.40
2023-05-21T04:36:44.279Z,81.42
2023-05-21T04:39:42.522Z,81.41
2023-05-21T04:42:41.527Z,81.55
2023-05-21T04:45:39.120Z,81.50
2023-05-21T04:48:36.870Z,81.41
2023-05-21T04:51:34.376Z,81.40
2023-05-21T04:54:32.119Z,81.39
2023-05-21T04:57:29.993Z,81.45
2023-05-21T05:00:27.963Z,81.54
2023-05-21T05:03:25.833Z,81.58
2023-05-21T05:06:25.917Z,81.52
2023-05-21T05:09:25.453Z,81.47
2023-05-21T05:12:22.949Z,81.38
2023-05-21T05:15:20.674Z,81.40
2023-05-21T05:18:18.175Z,81.29
2023-05-21T05:21:15.809Z,81.12
2023-05-21T05:24:13.641Z,80.70
2023-05-21T05:27:11.200Z,80.27
2023-05-21T05:30:09.060Z,79.85
2023-05-21T05:33:06.894Z,79.47
2023-05-21T05:36:04.833Z,79.22
2023-05-21T05:39:02.307Z,78.94
2023-05-21T05:42:00.034Z,78.58
2023-05-21T05:44:57.830Z,78.07
2023-05-21T05:47:55.398Z,77.37
2023-05-21T05:50:55.011Z,76.64
2023-05-21T05:53:52.540Z,76.21
2023-05-21T05:56:50.371Z,75.77
2023-05-21T05:59:47.909Z,75.25
2023-05-21T06:02:45.672Z,74.50
2023-05-21T06:05:43.255Z,73.81
2023-05-21T06:08:41.835Z,73.53
2023-05-21T06:11:39.522Z,73.18
2023-05-21T06:14:37.050Z,72.73
2023-05-21T06:17:34.931Z,72.30
2023-05-21T06:20:32.589Z,71.63
2023-05-21T06:23:32.779Z,71.26
2023-05-21T06:26:30.313Z,70.90
2023-05-21T06:29:28.329Z,70.16
2023-05-21T06:32:25.938Z,69.68
2023-05-21T06:35:23.769Z,69.25
2023-05-21T06:38:21.632Z,68.79
2023-05-21T06:41:19.131Z,68.26
2023-05-21T06:44:17.150Z,67.96
2023-05-21T06:47:14.684Z,67.79
2023-05-21T06:50:12.372Z,67.68
2023-05-21T06:53:09.849Z,67.27
2023-05-21T06:56:07.625Z,67.26
2023-05-21T06:59:05.157Z,66.97
2023-05-21T07:02:04.508Z,66.50
2023-05-21T07:05:02.564Z,65.99
2023-05-21T07:08:00.084Z,65.57
2023-05-21T07:10:57.894Z,65.10
2023-05-21T07:13:55.454Z,64.28
2023-05-21T07:16:53.247Z,63.72
2023-05-21T07:19:50.923Z,63.44
2023-05-21T07:22:48.610Z,63.05
2023-05-21T07:25:46.425Z,62.57
2023-05-21T07:28:43.950Z,62.25
2023-05-21T07:31:41.820Z,61.88
2023-05-21T07:34:39.574Z,61.33
2023-05-21T07:37:37.258Z,60.90
2023-05-21T07:40:34.818Z,60.50
2023-05-21T07:43:32.528Z,60.23
2023-05-21T07:46:30.151Z,59.79
2023-05-21T07:49:28.714Z,59.07
2023-05-21T07:52:26.267Z,58.67
2023-05-21T07:55:24.104Z,58.39
2023-05-21T07:58:22.345Z,58.28
2023-05-21T08:01:19.822Z,57.49
2023-05-21T08:04:17.866Z,56.93
2023-05-21T08:07:17.381Z,56.58
2023-05-21T08:10:16.182Z,56.33
2023-05-21T08:13:15.628Z,55.65
2023-05-21T08:16:13.224Z,55.57
2023-05-21T08:19:14.285Z,55.09
2023-05-21T08:22:12.040Z,54.72
2023-05-21T08:25:10.266Z,54.88
2023-05-21T08:28:07.809Z,54.64
2023-05-21T08:31:05.512Z,54.49
2023-05-21T08:34:03.359Z,53.72
2023-05-21T08:37:00.878Z,52.81
2023-05-21T08:39:58.795Z,51.92
2023-05-21T08:42:56.363Z,50.68
2023-05-21T08:45:54.079Z,50.79
2023-05-21T08:48:51.615Z,50.85
2023-05-21T08:51:50.694Z,50.69
2023-05-21T08:54:48.222Z,49.65
2023-05-21T08:57:45.910Z,49.58
2023-05-21T09:00:43.428Z,48.95
2023-05-21T09:03:41.348Z,48.68
2023-05-21T09:06:39.207Z,48.85
2023-05-21T09:09:36.738Z,48.46
2023-05-21T09:12:34.642Z,47.81
2023-05-21T09:15:39.138Z,46.57
2023-05-21T09:18:37.100Z,46.68
2023-05-21T09:21:34.898Z,46.08
2023-05-21T09:24:35.104Z,45.78
2023-05-21T09:27:34.014Z,44.97
2023-05-21T09:30:33.972Z,44.70
2023-05-21T09:33:33.633Z,44.36
2023-05-21T09:36:31.063Z,44.42
2023-05-21T09:39:28.911Z,44.05
2023-05-21T09:42:26.597Z,43.42
2023-05-21T09:45:24.100Z,42.75
2023-05-21T09:48:21.786Z,42.81
2023-05-21T09:51:19.334Z,43.03
2023-05-21T09:54:17.183Z,42.62
2023-05-21T09:57:14.687Z,41.64
2023-05-21T10:00:14.070Z,41.42
2023-05-21T10:03:12.316Z,41.42
2023-05-21T10:06:10.165Z,41.34
2023-05-21T10:09:07.818Z,40.62
2023-05-21T10:12:05.294Z,40.46
2023-05-21T10:15:02.937Z,39.92
2023-05-21T10:18:00.446Z,39.45
2023-05-21T10:20:58.092Z,38.82
2023-05-21T10:23:56.790Z,39.56
2023-05-21T10:26:54.263Z,39.07
2023-05-21T10:29:54.297Z,39.38
2023-05-21T10:32:52.002Z,38.83
2023-05-21T10:35:51.404Z,38.77
2023-05-21T10:38:49.562Z,38.99
2023-05-21T10:41:47.201Z,38.35
2023-05-21T10:44:44.902Z,37.92
2023-05-21T10:47:42.406Z,37.97
2023-05-21T10:50:40.498Z,37.58
2023-05-21T10:53:38.492Z,37.07
2023-05-21T10:56:36.233Z,36.95
2023-05-21T10:59:33.673Z,37.25
2023-05-21T11:02:31.539Z,37.09
2023-05-21T11:05:29.378Z,36.47
2023-05-21T11:08:26.837Z,35.67
2023-05-21T11:11:24.685Z,35.79
2023-05-21T11:14:22.113Z,35.03
2023-05-21T11:17:20.355Z,35.11
2023-05-21T11:20:18.108Z,35.55
2023-05-21T11:23:15.838Z,35.53
2023-05-21T11:26:13.547Z,35.13
2023-05-21T11:29:11.264Z,34.96
2023-05-21T11:32:09.487Z,35.11
2023-05-21T11:35:06.995Z,34.77
2023-05-21T11:38:04.777Z,34.82
2023-05-21T11:41:02.216Z,34.99
2023-05-21T11:43:59.929Z,34.53
2023-05-21T11:46:58.830Z,34.45
2023-05-21T11:49:56.469Z,34.74
2023-05-21T11:52:54.229Z,34.75
2023-05-21T11:55:57.729Z,34.14
2023-05-21T11:59:01.333Z,34.39
2023-05-21T12:01:59.437Z,34.54
2023-05-21T12:05:00.807Z,34.18
2023-05-21T12:07:58.648Z,33.33
2023-05-21T12:10:56.158Z,33.47
2023-05-21T12:13:53.990Z,33.53
2023-05-21T12:16:51.627Z,33.47
2023-05-21T12:19:49.500Z,33.09
2023-05-21T12:22:46.987Z,32.95
2023-05-21T12:25:45.222Z,32.72
2023-05-21T12:28:43.009Z,32.68
2023-05-21T12:31:40.654Z,32.57
2023-05-21T12:34:39.148Z,32.72
2023-05-21T12:37:37.134Z,32.83
2023-05-21T12:40:34.948Z,32.56
2023-05-21T12:43:32.630Z,32.33
2023-05-21T12:46:30.247Z,32.04
2023-05-21T12:49:27.745Z,32.12
2023-05-21T12:52:26.077Z,31.90
2023-05-21T12:55:23.743Z,32.29
2023-05-21T12:58:22.392Z,32.13
2023-05-21T13:01:20.115Z,32.18
2023-05-21T13:04:17.604Z,32.01
2023-05-21T13:07:16.332Z,32.13
2023-05-21T13:10:13.827Z,32.19
2023-05-21T13:13:11.722Z,32.47
2023-05-21T13:16:09.248Z,32.36
2023-05-21T13:19:07.158Z,31.95
2023-05-21T13:22:07.059Z,32.06
2023-05-21T13:25:04.499Z,32.28
2023-05-21T13:28:02.348Z,32.55
2023-05-21T13:30:59.828Z,32.93
2023-05-21T13:33:57.569Z,32.29
2023-05-21T13:36:55.034Z,32.46
2023-05-21T13:39:52.711Z,32.84
2023-05-21T13:42:50.477Z,33.36
2023-05-21T13:45:49.577Z,33.37
2023-05-21T13:48:47.721Z,33.67
2023-05-21T13:51:45.259Z,33.83
2023-05-21T13:54:43.585Z,33.09
2023-05-21T13:57:41.140Z,33.32
2023-05-21T14:00:39.114Z,33.16
2023-05-21T14:03:36.870Z,32.82
2023-05-21T14:06:34.733Z,32.47
2023-05-21T14:09:32.500Z,33.10
2023-05-21T14:12:29.922Z,33.13
2023-05-21T14:15:28.063Z,32.87
2023-05-21T14:18:25.504Z,32.60
2023-05-21T14:21:23.267Z,32.95
2023-05-21T14:24:20.727Z,32.68
2023-05-21T14:27:18.525Z,32.29
2023-05-21T14:30:16.370Z,32.46
2023-05-21T14:33:13.911Z,32.28
2023-05-21T14:36:11.621Z,32.51
2023-05-21T14:39:09.120Z,32.60
2023-05-21T14:42:06.922Z,32.72
2023-05-21T14:45:17.352Z,32.65
2023-05-21T14:48:16.376Z,32.76
2023-05-21T14:51:14.590Z,33.07
2023-05-21T14:54:12.086Z,33.34
2023-05-21T14:57:09.852Z,32.89
2023-05-21T15:00:07.348Z,32.75
2023-05-21T15:03:05.272Z,32.90
2023-05-21T15:06:02.819Z,33.06
2023-05-21T15:09:00.564Z,33.07
2023-05-21T15:11:58.341Z,32.97
2023-05-21T15:14:55.804Z,32.77
2023-05-21T15:17:53.696Z,33.09
2023-05-21T15:20:51.188Z,32.89
2023-05-21T15:23:48.878Z,32.72
2023-05-21T15:26:46.387Z,32.96
2023-05-21T15:29:45.954Z,33.03
2023-05-21T15:32:43.409Z,32.72
2023-05-21T15:35:41.612Z,33.23
2023-05-21T15:38:39.770Z,33.57
2023-05-21T15:41:38.519Z,33.38
2023-05-21T15:44:36.129Z,33.09
2023-05-21T15:47:33.661Z,33.11
2023-05-21T15:50:31.636Z,33.63
2023-05-21T15:53:29.996Z,33.91
2023-05-21T15:56:28.061Z,34.35
2023-05-21T15:59:27.810Z,34.35
2023-05-21T16:02:25.336Z,34.81
2023-05-21T16:05:23.076Z,35.14
2023-05-21T16:08:20.746Z,35.11
2023-05-21T16:11:18.574Z,35.28
2023-05-21T16:14:16.055Z,35.45
2023-05-21T16:17:13.955Z,35.73
2023-05-21T16:20:11.634Z,36.02
2023-05-21T16:23:09.057Z,36.33
2023-05-21T16:26:06.902Z,36.70
2023-05-21T16:29:04.391Z,36.97
2023-05-21T16:32:02.250Z,37.16
2023-05-21T16:34:59.802Z,37.66
2023-05-21T16:37:58.080Z,38.18
2023-05-21T16:40:55.938Z,37.89
2023-05-21T16:43:54.512Z,37.90
2023-05-21T16:46:52.152Z,37.98
2023-05-21T16:49:49.714Z,38.09
2023-05-21T16:52:49.820Z,38.34
2023-05-21T16:55:47.534Z,38.50
2023-05-21T16:58:44.983Z,38.70
2023-05-21T17:01:42.879Z,38.88
2023-05-21T17:04:40.443Z,39.21
2023-05-21T17:07:38.821Z,39.22
2023-05-21T17:10:36.254Z,39.23
2023-05-21T17:13:34.046Z,39.49
2023-05-21T17:16:31.641Z,39.83
2023-05-21T17:19:29.679Z,40.21
2023-05-21T17:22:27.741Z,40.72
2023-05-21T17:25:25.694Z,40.92
2023-05-21T17:28:23.403Z,40.89
2023-05-21T17:31:21.982Z,41.14
2023-05-21T17:34:19.840Z,41.41
2023-05-21T17:37:17.323Z,41.83
2023-05-21T17:40:15.079Z,42.14
2023-05-21T17:43:12.826Z,42.67
2023-05-21T17:46:10.833Z,42.85
2023-05-21T17:49:10.204Z,43.14
2023-05-21T17:52:07.637Z,43.49
2023-05-21T17:55:05.955Z,43.88
2023-05-21T17:58:05.520Z,44.18
2023-05-21T18:01:03.326Z,44.42
2023-05-21T18:04:00.841Z,44.68
2023-05-21T18:06:58.673Z,44.86
2023-05-21T18:09:56.112Z,45.14
2023-05-21T18:12:53.901Z,45.45
2023-05-21T18:15:51.459Z,45.82
2023-05-21T18:18:49.480Z,46.24
2023-05-21T18:21:48.091Z,46.60
2023-05-21T18:24:46.315Z,46.81
2023-05-21T18:27:43.974Z,47.10
2023-05-21T18:30:41.432Z,47.57
2023-05-21T18:33:39.797Z,48.03
2023-05-21T18:36:39.017Z,48.72
2023-05-21T18:39:36.772Z,49.39
2023-05-21T18:42:34.355Z,49.95
2023-05-21T18:45:31.819Z,50.47
2023-05-21T18:48:29.756Z,51.03
2023-05-21T18:51:27.262Z,51.58
2023-05-21T18:54:24.974Z,52.08
2023-05-21T18:57:22.533Z,52.47
2023-05-21T19:00:22.003Z,52.91
2023-05-21T19:03:19.583Z,53.29
2023-05-21T19:06:17.381Z,53.59
2023-05-21T19:09:15.082Z,53.88
2023-05-21T19:12:12.521Z,54.22
2023-05-21T19:18:30.456Z,54.84
2023-05-21T19:21:28.604Z,55.15
2023-05-21T19:24:26.515Z,55.45
2023-05-21T19:27:24.338Z,55.72
2023-05-21T19:30:22.181Z,56.12
2023-05-21T19:33:19.704Z,56.45
2023-05-21T19:36:17.509Z,56.75
2023-05-21T19:39:15.017Z,56.94
2023-05-21T19:42:12.676Z,57.28
2023-05-21T19:45:11.664Z,57.64
2023-05-21T19:48:09.508Z,58.05
2023-05-21T19:51:07.217Z,58.33
2023-05-21T19:54:04.730Z,58.63
2023-05-21T19:57:02.496Z,58.95
2023-05-21T20:00:00.066Z,59.31
2023-05-21T20:02:57.930Z,59.55
2023-05-21T20:05:55.531Z,59.69
2023-05-21T20:08:53.843Z,59.80
2023-05-21T20:11:51.322Z,60.05
2023-05-21T20:14:49.076Z,60.28
2023-05-21T20:17:46.981Z,60.49
2023-05-21T20:20:44.432Z,60.65
2023-05-21T20:23:43.909Z,60.77
2023-05-21T20:26:41.422Z,60.88
2023-05-21T20:29:39.242Z,61.17
2023-05-21T20:32:36.772Z,61.44
2023-05-21T20:35:34.572Z,61.73
2023-05-21T20:38:33.281Z,62.04
2023-05-21T20:41:38.599Z,62.23
2023-05-21T20:44:36.868Z,62.39
2023-05-21T20:47:34.384Z,62.63
2023-05-21T20:50:34.966Z,62.90
2023-05-21T20:53:32.404Z,63.08
2023-05-21T20:56:41.483Z,63.30
2023-05-21T20:59:39.963Z,63.50
2023-05-21T21:02:39.054Z,63.59
2023-05-21T21:05:36.659Z,63.83
2023-05-21T21:08:34.975Z,64.08
2023-05-21T21:11:32.425Z,64.30
2023-05-21T21:14:32.010Z,64.48
2023-05-21T21:17:30.958Z,64.65
2023-05-21T21:20:28.482Z,64.88
2023-05-21T21:23:26.618Z,65.03
2023-05-21T21:26:24.094Z,65.26
2023-05-21T21:29:21.812Z,65.50
2023-05-21T21:32:19.289Z,65.75
2023-05-21T21:35:17.250Z,65.90
2023-05-21T21:38:14.749Z,66.08
2023-05-21T21:41:12.471Z,66.28
2023-05-21T21:44:10.243Z,66.39
2023-05-21T21:47:07.750Z,66.56
2023-05-21T21:50:05.548Z,66.71
2023-05-21T21:53:03.769Z,66.85
2023-05-21T21:56:01.644Z,67.03
2023-05-21T21:58:59.139Z,67.13
2023-05-21T22:01:57.171Z,67.22
2023-05-21T22:04:54.662Z,67.34
2023-05-21T22:07:52.423Z,67.48
2023-05-21T22:10:49.927Z,67.63
2023-05-21T22:13:47.737Z,67.79
2023-05-21T22:16:45.523Z,67.88
2023-05-21T22:19:43.070Z,68.04
2023-05-21T22:22:41.016Z,68.21
2023-05-21T22:25:38.465Z,68.28
2023-05-21T22:28:36.361Z,68.42
2023-05-21T22:31:33.888Z,68.61
2023-05-21T22:34:31.663Z,68.71
2023-05-21T22:37:29.139Z,68.86
2023-05-21T22:40:26.842Z,68.97
2023-05-21T22:43:24.688Z,69.06
2023-05-21T22:46:22.222Z,69.16
2023-05-21T22:49:20.198Z,69.22
2023-05-21T22:52:17.823Z,69.31
2023-05-21T22:55:16.365Z,69.43
2023-05-21T22:58:13.880Z,69.57
2023-05-21T23:01:11.692Z,69.66
2023-05-21T23:04:09.187Z,69.75
2023-05-21T23:07:06.922Z,69.89
2023-05-21T23:10:04.697Z,70.03
2023-05-21T23:13:02.210Z,70.16
2023-05-21T23:15:59.896Z,70.24
2023-05-21T23:18:57.386Z,70.39
2023-05-21T23:21:55.007Z,70.55
2023-05-21T23:24:54.269Z,70.66
2023-05-21T23:27:52.102Z,70.78
2023-05-21T23:30:49.574Z,70.90
2023-05-21T23:33:47.435Z,71.03
2023-05-21T23:36:44.890Z,71.14
2023-05-21T23:39:43.959Z,71.22
2023-05-21T23:42:41.862Z,71.32
2023-05-21T23:45:41.208Z,71.38
2023-05-21T23:48:38.840Z,71.46
2023-05-21T23:51:36.332Z,71.57
2023-05-21T23:54:34.150Z,71.72
2023-05-21T23:57:31.612Z,71.82
